Time;durP1;ratioP1;P1;durP2;ratioP2;P2;SDS_P1;SDS_P2;PMS_P1;PMS_P2;Temp;Humidity;BMP_temperature;BMP_pressure;BME280_temperature;BME280_humidity;BME280_pressure;Samples;Min_cycle;Max_cycle;Signal;HPM_P1;HPM_P2
2023/11/26 00:00:21;;;;;;;26.30;18.80;;;;;;;0.10;100.00;97612.67;109542;1251;65954;-74
2023/11/26 00:03:08;;;;;;;24.50;18.60;;;;;;;0.11;100.00;97613.88;109524;1252;61544;-74
2023/11/26 00:05:34;;;;;;;27.90;19.60;;;;;;;0.11;100.00;97616.48;109571;1252;64770;-74
2023/11/26 00:08:01;;;;;;;26.50;19.60;;;;;;;0.12;100.00;97617.51;109509;1253;59108;-74
2023/11/26 00:10:27;;;;;;;26.70;19.30;;;;;;;0.13;100.00;97615.01;109510;1252;59068;-74
2023/11/26 00:12:54;;;;;;;29.80;20.40;;;;;;;0.14;100.00;97615.66;109579;1251;66976;-74
2023/11/26 00:15:21;;;;;;;28.20;19.40;;;;;;;0.14;100.00;97615.45;109344;1254;61232;-74
2023/11/26 00:17:48;;;;;;;25.00;19.20;;;;;;;0.15;100.00;97620.13;109333;1252;65101;-74
2023/11/26 00:20:15;;;;;;;29.20;20.50;;;;;;;0.17;100.00;97624.05;109346;1253;58998;-74
2023/11/26 00:22:42;;;;;;;36.70;22.40;;;;;;;0.18;100.00;97627.48;109560;1252;61497;-74
2023/11/26 00:25:08;;;;;;;34.70;23.80;;;;;;;0.19;100.00;97626.91;109618;1252;66853;-74
2023/11/26 00:27:35;;;;;;;34.20;23.00;;;;;;;0.21;100.00;97624.92;109485;1252;60039;-74
2023/11/26 00:30:03;;;;;;;33.30;24.40;;;;;;;0.22;100.00;97626.45;109260;1252;65409;-74
2023/11/26 00:32:29;;;;;;;34.40;23.50;;;;;;;0.22;100.00;97626.08;109240;1252;59031;-74
2023/11/26 00:34:56;;;;;;;31.60;22.90;;;;;;;0.23;100.00;97627.27;109575;1252;59160;-75
2023/11/26 00:37:23;;;;;;;34.10;24.00;;;;;;;0.23;100.00;97627.08;109513;1253;67029;-74
2023/11/26 00:39:49;;;;;;;33.70;23.90;;;;;;;0.23;100.00;97628.52;109276;1252;59126;-75
2023/11/26 00:42:16;;;;;;;32.40;21.90;;;;;;;0.23;100.00;97630.93;109536;1253;65231;-74
2023/11/26 00:44:42;;;;;;;29.50;22.70;;;;;;;0.23;100.00;97630.77;109566;1252;59260;-74
2023/11/26 00:47:09;;;;;;;34.20;22.40;;;;;;;0.25;100.00;97632.77;109518;1253;59398;-75
2023/11/26 00:49:37;;;;;;;33.60;22.10;;;;;;;0.26;100.00;97635.52;109525;1253;66128;-75
2023/11/26 00:52:04;;;;;;;29.40;21.50;;;;;;;0.27;100.00;97634.60;109555;1252;60052;-75
2023/11/26 00:54:30;;;;;;;31.00;21.70;;;;;;;0.27;100.00;97629.90;109525;1252;73014;-73
2023/11/26 00:56:57;;;;;;;31.50;21.30;;;;;;;0.26;100.00;97631.13;109504;1252;58937;-74
2023/11/26 00:59:23;;;;;;;31.40;21.10;;;;;;;0.27;100.00;97635.81;109591;1252;59827;-74
2023/11/26 01:01:50;;;;;;;33.00;22.60;;;;;;;0.27;100.00;97641.75;109608;1252;66010;-74
2023/11/26 01:04:16;;;;;;;29.50;19.50;;;;;;;0.27;100.00;97644.89;109277;1252;60261;-74
2023/11/26 01:06:44;;;;;;;29.70;20.10;;;;;;;0.28;100.00;97643.48;109538;1252;64953;-74
2023/11/26 01:09:12;;;;;;;30.70;21.40;;;;;;;0.28;100.00;97641.52;109257;1252;58987;-74
2023/11/26 01:11:39;;;;;;;31.40;21.80;;;;;;;0.29;100.00;97644.46;109558;1253;58965;-74
2023/11/26 01:14:07;;;;;;;28.90;21.00;;;;;;;0.30;100.00;97647.21;109584;1252;66145;-75
2023/11/26 01:16:34;;;;;;;29.70;20.90;;;;;;;0.30;100.00;97651.56;109601;1252;61142;-75
2023/11/26 01:19:01;;;;;;;29.30;20.30;;;;;;;0.32;100.00;97655.34;109557;1253;63999;-74
2023/11/26 01:21:28;;;;;;;29.40;18.60;;;;;;;0.33;100.00;97654.08;109551;1253;58960;-74
2023/11/26 01:23:54;;;;;;;27.50;18.50;;;;;;;0.34;100.00;97650.86;109583;1252;59076;-74
2023/11/26 01:26:21;;;;;;;30.20;20.40;;;;;;;0.33;100.00;97649.13;109535;1251;67101;-74
2023/11/26 01:28:48;;;;;;;31.40;19.90;;;;;;;0.33;100.00;97649.50;109522;1252;68781;-75
2023/11/26 01:31:14;;;;;;;29.50;19.50;;;;;;;0.34;100.00;97651.04;109551;1251;65096;-74
2023/11/26 01:33:41;;;;;;;28.50;18.90;;;;;;;0.35;100.00;97650.97;109562;1252;59076;-75
2023/11/26 01:36:09;;;;;;;27.90;18.70;;;;;;;0.36;100.00;97649.88;109565;1252;58972;-74
2023/11/26 01:38:36;;;;;;;27.10;17.10;;;;;;;0.37;100.00;97651.05;109552;1253;66174;-74
2023/11/26 01:41:03;;;;;;;29.00;18.40;;;;;;;0.36;100.00;97655.80;109528;1252;60851;-74
2023/11/26 01:43:30;;;;;;;25.40;17.10;;;;;;;0.36;100.00;97654.05;109259;1252;65240;-73
2023/11/26 01:46:07;;;;;;;29.10;19.40;;;;;;;0.36;100.00;97655.63;109605;1252;59148;-73
2023/11/26 01:48:35;;;;;;;27.40;17.70;;;;;;;0.36;100.00;97657.90;109620;1252;59357;-73
2023/11/26 01:51:05;;;;;;;27.60;19.20;;;;;;;0.36;100.00;97656.36;109547;1253;66104;-73
2023/11/26 01:53:33;;;;;;;27.00;19.60;;;;;;;0.36;100.00;97655.86;109575;1252;67635;-74
2023/11/26 01:56:01;;;;;;;27.00;18.00;;;;;;;0.37;100.00;97652.48;109561;1252;65263;-74
2023/11/26 01:58:29;;;;;;;28.80;19.20;;;;;;;0.37;100.00;97655.07;109525;1253;58932;-74
2023/11/26 02:00:57;;;;;;;29.80;20.40;;;;;;;0.36;100.00;97652.48;109558;1253;59320;-74
2023/11/26 02:03:24;;;;;;;28.40;20.10;;;;;;;0.35;100.00;97655.86;109591;1252;66136;-74
2023/11/26 02:05:51;;;;;;;28.30;20.10;;;;;;;0.36;100.00;97656.36;108025;1252;1002449;-74
2023/11/26 02:08:20;;;;;;;34.20;22.20;;;;;;;0.36;100.00;97668.76;109523;1252;65054;-74
2023/11/26 02:10:47;;;;;;;18.50;11.70;;;;;;;0.35;100.00;97683.83;109539;1252;58936;-74
2023/11/26 02:13:13;;;;;;;7.50;5.70;;;;;;;0.24;100.00;97687.13;109582;1252;58908;-74
2023/11/26 02:15:40;;;;;;;6.10;3.80;;;;;;;0.07;100.00;97688.97;109579;1251;65939;-74
2023/11/26 02:18:07;;;;;;;5.80;3.90;;;;;;;-0.10;100.00;97687.79;108806;1253;1002764;-74
2023/11/26 02:20:33;;;;;;;5.50;3.90;;;;;;;-0.23;100.00;97683.86;109589;1252;64122;-73
2023/11/26 02:23:00;;;;;;;5.40;4.00;;;;;;;-0.31;100.00;97687.16;109513;1252;59078;-75
2023/11/26 02:25:30;;;;;;;5.90;4.10;;;;;;;-0.35;100.00;97685.98;109553;1252;58958;-74
2023/11/26 02:27:59;;;;;;;6.90;5.30;;;;;;;-0.37;100.00;97686.59;109574;1252;65995;-74
2023/11/26 02:30:25;;;;;;;7.90;5.90;;;;;;;-0.39;100.00;97691.55;109575;1252;60086;-74
2023/11/26 02:32:52;;;;;;;6.60;5.20;;;;;;;-0.38;100.00;97695.34;109542;1253;65080;-74
2023/11/26 02:35:19;;;;;;;7.30;5.60;;;;;;;-0.38;100.00;97699.18;109527;1252;58997;-74
2023/11/26 02:37:46;;;;;;;8.70;6.60;;;;;;;-0.38;100.00;97703.20;109551;1252;59133;-73
2023/11/26 02:40:15;;;;;;;8.00;5.40;;;;;;;-0.37;100.00;97702.28;109337;1252;66792;-74
2023/11/26 02:42:43;;;;;;;6.60;5.60;;;;;;;-0.36;100.00;97701.89;109605;1252;60158;-73
2023/11/26 02:45:10;;;;;;;6.50;5.80;;;;;;;-0.35;100.00;97702.89;109528;1252;65033;-74
2023/11/26 02:47:37;;;;;;;8.40;5.50;;;;;;;-0.35;100.00;97702.20;109571;1252;58921;-73
2023/11/26 02:50:05;;;;;;;8.00;6.20;;;;;;;-0.36;100.00;97699.45;109539;1252;59160;-74
2023/11/26 02:52:32;;;;;;;8.50;6.30;;;;;;;-0.37;100.00;97705.08;109553;1253;67001;-73
2023/11/26 02:54:58;;;;;;;7.00;5.50;;;;;;;-0.38;100.00;97712.46;109590;1252;61065;-74
2023/11/26 02:57:25;;;;;;;6.90;5.20;;;;;;;-0.40;100.00;97713.94;109590;1252;65166;-74
2023/11/26 02:59:52;;;;;;;8.10;4.70;;;;;;;-0.41;100.00;97717.47;109539;1253;58936;-75
2023/11/26 03:02:18;;;;;;;6.50;5.20;;;;;;;-0.41;100.00;97722.53;109579;1252;59107;-74
2023/11/26 03:04:53;;;;;;;6.70;4.50;;;;;;;-0.41;100.00;97727.77;109562;1252;65950;-74
2023/11/26 03:07:21;;;;;;;6.20;4.40;;;;;;;-0.41;100.00;97729.69;109607;1253;59770;-74
2023/11/26 03:15:18;;;;;;;10.20;7.00;;;;;;;-0.44;100.00;97743.23;109591;1252;59105;-74
2023/11/26 03:17:45;;;;;;;11.20;6.10;;;;;;;-0.45;100.00;97743.27;109549;1253;65954;-74
2023/11/26 03:20:16;;;;;;;7.40;6.20;;;;;;;-0.45;100.00;97743.59;109666;1253;59018;-75
2023/11/26 03:22:43;;;;;;;7.80;6.20;;;;;;;-0.45;100.00;97743.27;109341;1252;65163;-75
2023/11/26 03:25:09;;;;;;;8.10;6.40;;;;;;;-0.46;100.00;97742.58;109572;1253;58960;-74
2023/11/26 03:27:36;;;;;;;8.50;7.10;;;;;;;-0.46;100.00;97737.36;109238;1252;58969;-74
2023/11/26 03:30:02;;;;;;;8.20;6.80;;;;;;;-0.44;100.00;97743.41;109552;1252;67073;-74
2023/11/26 03:32:29;;;;;;;10.60;7.40;;;;;;;-0.44;100.00;97746.19;109604;1252;60250;-74
2023/11/26 03:34:56;;;;;;;10.50;8.50;;;;;;;-0.44;100.00;97746.73;109536;1252;65045;-74
2023/11/26 03:37:22;;;;;;;11.40;7.60;;;;;;;-0.44;100.00;97749.86;109528;1252;59022;-73
2023/11/26 03:39:49;;;;;;;10.60;8.50;;;;;;;-0.43;100.00;97754.02;109519;1252;59039;-74
2023/11/26 03:42:16;;;;;;;11.10;8.50;;;;;;;-0.42;100.00;97758.52;109547;1253;66981;-73
2023/11/26 03:44:42;;;;;;;10.90;8.70;;;;;;;-0.43;100.00;97760.09;109591;1253;60051;-74
2023/11/26 03:47:09;;;;;;;13.60;9.90;;;;;;;-0.43;100.00;97761.70;109256;1252;64973;-74
2023/11/26 03:49:37;;;;;;;11.50;10.20;;;;;;;-0.44;100.00;97763.63;109590;1252;58935;-74
2023/11/26 03:52:04;;;;;;;15.30;11.40;;;;;;;-0.45;100.00;97765.93;109600;1252;59106;-74
2023/11/26 03:54:30;;;;;;;13.40;10.60;;;;;;;-0.46;100.00;97766.14;109544;1253;67206;-74
2023/11/26 03:56:57;;;;;;;16.00;12.20;;;;;;;-0.46;100.00;97774.86;109585;1253;60084;-74
2023/11/26 03:59:25;;;;;;;19.40;12.70;;;;;;;-0.46;100.00;97779.23;109540;1252;64001;-74
2023/11/26 04:01:52;;;;;;;15.60;10.50;;;;;;;-0.43;100.00;97786.62;109476;1252;59339;-74
2023/11/26 04:04:19;;;;;;;14.00;10.50;;;;;;;-0.41;100.00;97787.95;109569;1253;58993;-75
2023/11/26 04:06:46;;;;;;;15.60;11.00;;;;;;;-0.39;100.00;97790.16;109567;1252;65922;-73
2023/11/26 04:09:14;;;;;;;13.90;9.30;;;;;;;-0.38;100.00;97793.55;109569;1252;60056;-74
2023/11/26 04:11:44;;;;;;;10.80;9.40;;;;;;;-0.37;100.00;97791.43;109580;1253;64143;-74
2023/11/26 04:14:11;;;;;;;8.60;7.70;;;;;;;-0.35;100.00;97799.19;109598;1252;59052;-74
2023/11/26 04:16:38;;;;;;;11.10;8.30;;;;;;;-0.34;100.00;97799.52;109544;1252;60251;-74
2023/11/26 04:19:04;;;;;;;9.80;7.30;;;;;;;-0.34;100.00;97798.63;109580;1252;67025;-74
2023/11/26 04:21:31;;;;;;;11.80;8.10;;;;;;;-0.33;100.00;97802.44;109614;1252;61123;-74
2023/11/26 04:23:58;;;;;;;7.60;6.70;;;;;;;-0.33;100.00;97805.95;109563;1253;65029;-75
2023/11/26 04:26:25;;;;;;;8.60;7.30;;;;;;;-0.34;100.00;97809.45;109538;1252;59008;-75
2023/11/26 04:28:53;;;;;;;8.70;7.80;;;;;;;-0.34;100.00;97816.27;109532;1254;59033;-75
2023/11/26 04:31:20;;;;;;;8.50;7.30;;;;;;;-0.35;100.00;97822.95;109591;1252;67275;-73
2023/11/26 04:33:46;;;;;;;8.40;7.60;;;;;;;-0.38;100.00;97818.89;109584;1252;61193;-73
2023/11/26 04:36:13;;;;;;;8.50;7.60;;;;;;;-0.40;100.00;97823.86;109601;1251;65391;-75
2023/11/26 04:38:39;;;;;;;9.50;8.40;;;;;;;-0.42;100.00;97828.11;109597;1251;59044;-74
2023/11/26 04:41:06;;;;;;;10.10;8.50;;;;;;;-0.43;100.00;97831.84;109628;1251;59018;-74
2023/11/26 04:43:33;;;;;;;10.90;9.70;;;;;;;-0.44;100.00;97836.23;109619;1251;67096;-75
2023/11/26 04:45:59;;;;;;;11.30;8.80;;;;;;;-0.44;100.00;97840.24;109587;1250;60132;-75
2023/11/26 04:48:26;;;;;;;12.80;8.80;;;;;;;-0.44;100.00;97847.05;109673;1251;65027;-74
2023/11/26 04:50:53;;;;;;;9.70;8.40;;;;;;;-0.44;100.00;97848.95;109591;1251;59396;-74
2023/11/26 04:53:20;;;;;;;10.80;8.40;;;;;;;-0.43;100.00;97851.71;109580;1251;59100;-74
2023/11/26 04:55:48;;;;;;;11.60;10.10;;;;;;;-0.42;100.00;97851.14;109595;1250;65754;-73
2023/11/26 04:58:15;;;;;;;14.50;10.90;;;;;;;-0.41;100.00;97855.48;109638;1250;61222;-74
2023/11/26 05:00:41;;;;;;;12.30;10.40;;;;;;;-0.40;100.00;97855.96;109603;1251;65295;-74
2023/11/26 05:03:08;;;;;;;12.50;10.40;;;;;;;-0.40;100.00;97853.35;109576;1251;58911;-75
2023/11/26 05:05:35;;;;;;;11.30;10.00;;;;;;;-0.41;100.00;97854.27;109589;1251;59043;-75
2023/11/26 05:08:01;;;;;;;13.00;10.70;;;;;;;-0.43;100.00;97859.02;109613;1251;66010;-74
2023/11/26 05:10:29;;;;;;;13.80;9.90;;;;;;;-0.43;100.00;97863.39;109605;1251;61114;-74
2023/11/26 05:12:56;;;;;;;11.80;10.30;;;;;;;-0.43;100.00;97870.04;109634;1251;63861;-73
2023/11/26 05:15:23;;;;;;;14.40;10.80;;;;;;;-0.44;100.00;97876.18;109564;1251;59038;-74
2023/11/26 05:17:50;;;;;;;16.00;11.20;;;;;;;-0.45;100.00;97886.15;109417;1251;145216;-75
2023/11/26 05:20:18;;;;;;;14.40;11.30;;;;;;;-0.46;100.00;97889.51;109606;1251;67335;-75
2023/11/26 05:22:45;;;;;;;16.40;12.70;;;;;;;-0.48;100.00;97892.90;109601;1251;60946;-75
2023/11/26 05:25:11;;;;;;;14.70;12.20;;;;;;;-0.50;100.00;97895.27;109330;1254;64871;-75
2023/11/26 05:27:38;;;;;;;12.60;10.20;;;;;;;-0.52;100.00;97897.29;109530;1251;59150;-76
2023/11/26 05:30:06;;;;;;;15.00;11.40;;;;;;;-0.56;100.00;97900.59;109567;1256;58999;-75
2023/11/26 05:32:33;;;;;;;17.20;12.90;;;;;;;-0.62;100.00;97901.48;109613;1251;66955;-75
2023/11/26 05:35:08;;;;;;;12.10;9.70;;;;;;;-0.66;100.00;97901.64;109569;1250;61052;-75
2023/11/26 05:37:35;;;;;;;12.10;9.70;;;;;;;-0.70;100.00;97904.58;109582;1251;65356;-75
2023/11/26 05:40:01;;;;;;;10.60;8.90;;;;;;;-0.73;100.00;97912.05;109548;1251;59027;-74
2023/11/26 05:42:28;;;;;;;14.00;9.60;;;;;;;-0.75;100.00;97917.87;109651;1251;58936;-74
2023/11/26 05:44:54;;;;;;;12.60;9.90;;;;;;;-0.77;100.00;97918.83;109592;1251;67033;-74
2023/11/26 05:47:21;;;;;;;12.90;9.80;;;;;;;-0.78;100.00;97924.77;109596;1251;61253;-75
2023/11/26 05:49:48;;;;;;;15.40;9.80;;;;;;;-0.78;100.00;97936.11;109633;1251;65249;-76
2023/11/26 05:52:14;;;;;;;24.60;15.40;;;;;;;-0.79;100.00;97944.35;109579;1254;59017;-74
2023/11/26 05:54:41;;;;;;;10.90;9.20;;;;;;;-0.79;100.00;97952.73;109557;1251;59033;-75
2023/11/26 05:57:08;;;;;;;12.60;8.70;;;;;;;-0.79;100.00;97957.98;109590;1251;67108;-75
2023/11/26 05:59:36;;;;;;;16.30;11.00;;;;;;;-0.80;100.00;97966.54;109614;1251;61023;-75
2023/11/26 06:02:04;;;;;;;11.40;8.50;;;;;;;-0.81;100.00;97968.67;109596;1251;63983;-74
2023/11/26 06:04:30;;;;;;;10.80;7.80;;;;;;;-0.82;100.00;97970.09;109587;1251;59064;-75
2023/11/26 06:06:57;;;;;;;13.30;8.50;;;;;;;-0.82;100.00;97967.16;109618;1251;58872;-74
2023/11/26 06:09:24;;;;;;;11.50;7.00;;;;;;;-0.83;100.00;97966.14;109561;1250;67298;-75
2023/11/26 06:11:51;;;;;;;14.60;9.40;;;;;;;-0.84;100.00;97971.95;109621;1251;60154;-75
2023/11/26 06:14:17;;;;;;;14.20;9.70;;;;;;;-0.86;100.00;97978.11;109632;1251;65130;-76
2023/11/26 06:16:45;;;;;;;11.00;8.30;;;;;;;-0.88;100.00;97985.16;109554;1251;58946;-75
2023/11/26 06:19:11;;;;;;;11.60;9.20;;;;;;;-0.91;100.00;97992.08;109587;1254;59046;-75
2023/11/26 06:21:38;;;;;;;16.00;10.00;;;;;;;-0.93;100.00;97997.73;109571;1251;66011;-75
2023/11/26 06:24:05;;;;;;;12.30;9.30;;;;;;;-0.96;100.00;98000.60;109286;1251;60071;-74
2023/11/26 06:26:33;;;;;;;11.20;8.70;;;;;;;-0.96;100.00;98008.81;109528;1251;63928;-75
2023/11/26 06:29:00;;;;;;;13.60;10.80;;;;;;;-0.98;100.00;98007.66;109602;1251;59024;-75
2023/11/26 06:31:29;;;;;;;12.80;9.40;;;;;;;-0.98;100.00;98010.80;109604;1251;58953;-75
2023/11/26 06:33:57;;;;;;;12.50;9.90;;;;;;;-0.97;100.00;98013.38;109607;1251;67237;-75
2023/11/26 06:36:25;;;;;;;18.20;11.80;;;;;;;-0.95;100.00;98020.64;109641;1250;61048;-75
2023/11/26 06:38:53;;;;;;;16.20;10.80;;;;;;;-0.93;100.00;98026.48;109591;1251;65046;-75
2023/11/26 06:41:28;;;;;;;12.20;10.00;;;;;;;-0.90;100.00;98029.34;109559;1251;59003;-75
2023/11/26 06:43:55;;;;;;;17.30;12.30;;;;;;;-0.88;100.00;98029.08;109622;1251;59059;-75
2023/11/26 06:46:24;;;;;;;12.90;10.70;;;;;;;-0.85;100.00;98028.47;109631;1251;67181;-75
2023/11/26 06:48:51;;;;;;;14.10;11.90;;;;;;;-0.82;100.00;98033.23;109593;1251;61377;-75
2023/11/26 06:51:17;;;;;;;15.20;11.60;;;;;;;-0.80;100.00;98038.21;109667;1251;72711;-75
2023/11/26 06:53:44;;;;;;;14.20;10.90;;;;;;;-0.78;100.00;98039.03;109636;1251;58909;-75
2023/11/26 06:56:11;;;;;;;16.30;12.30;;;;;;;-0.76;100.00;98041.91;109569;1251;59029;-75
2023/11/26 06:58:39;;;;;;;14.20;11.00;;;;;;;-0.72;100.00;98044.05;109607;1251;66022;-74
2023/11/26 07:01:06;;;;;;;12.40;9.80;;;;;;;-0.68;100.00;98049.64;109666;1251;60346;-75
2023/11/26 07:03:34;;;;;;;12.30;10.30;;;;;;;-0.66;100.00;98056.70;109574;1251;64056;-75
2023/11/26 07:06:04;;;;;;;12.20;9.50;;;;;;;-0.63;100.00;98060.98;109582;1251;58994;-75
2023/11/26 07:08:31;;;;;;;15.70;11.40;;;;;;;-0.60;100.00;98068.20;109609;1251;59112;-75
2023/11/26 07:10:58;;;;;;;13.00;10.40;;;;;;;-0.58;100.00;98069.84;109591;1251;67056;-76
2023/11/26 07:13:25;;;;;;;13.50;10.40;;;;;;;-0.54;100.00;98076.02;109586;1251;60188;-75
2023/11/26 07:15:51;;;;;;;14.00;11.20;;;;;;;-0.53;100.00;98081.17;109606;1251;63686;-75
2023/11/26 07:18:21;;;;;;;13.90;10.70;;;;;;;-0.52;100.00;98082.17;109588;1251;58971;-76
2023/11/26 07:20:47;;;;;;;12.50;10.20;;;;;;;-0.51;100.00;98084.59;109278;1251;59085;-75
2023/11/26 07:23:14;;;;;;;13.40;10.50;;;;;;;-0.49;100.00;98085.58;109621;1251;66948;-75
2023/11/26 07:25:41;;;;;;;11.80;9.70;;;;;;;-0.45;100.00;98084.73;109587;1251;61026;-76
2023/11/26 07:28:08;;;;;;;12.30;10.40;;;;;;;-0.40;100.00;98088.59;109557;1251;65074;-75
2023/11/26 07:30:35;;;;;;;11.70;9.30;;;;;;;-0.35;100.00;98086.61;109602;1251;59021;-75
2023/11/26 07:33:02;;;;;;;10.60;8.80;;;;;;;-0.29;100.00;98088.50;109639;1251;58911;-75
2023/11/26 07:35:30;;;;;;;12.90;8.70;;;;;;;-0.26;100.00;98093.28;109261;1251;64861;-75
2023/11/26 07:37:57;;;;;;;15.10;10.80;;;;;;;-0.25;100.00;98097.23;109590;1251;61213;-75
2023/11/26 07:40:23;;;;;;;13.70;10.90;;;;;;;-0.24;100.00;98104.54;109615;1251;64210;-75
2023/11/26 07:42:50;;;;;;;11.10;10.00;;;;;;;-0.22;100.00;98105.15;109255;1251;59083;-75
2023/11/26 07:45:18;;;;;;;12.00;9.50;;;;;;;-0.19;100.00;98107.66;109622;1251;59101;-74
2023/11/26 07:47:44;;;;;;;11.30;8.70;;;;;;;-0.18;100.00;98109.38;109366;1251;66073;-74
2023/11/26 07:50:11;;;;;;;14.50;11.10;;;;;;;-0.17;100.00;98110.20;109606;1251;60267;-75
2023/11/26 07:52:39;;;;;;;12.90;10.10;;;;;;;-0.14;100.00;98117.08;109633;1251;65318;-75
2023/11/26 07:55:06;;;;;;;10.90;8.80;;;;;;;-0.09;100.00;98117.92;109607;1251;59828;-75
2023/11/26 07:57:34;;;;;;;10.90;8.40;;;;;;;-0.03;100.00;98118.57;109609;1250;58966;-75
2023/11/26 08:00:01;;;;;;;10.90;8.40;;;;;;;0.04;100.00;98117.63;109637;1251;66084;-75
2023/11/26 08:02:29;;;;;;;10.80;8.60;;;;;;;0.09;100.00;98121.63;109558;1255;61042;-75
2023/11/26 08:04:57;;;;;;;10.50;8.90;;;;;;;0.13;100.00;98122.33;109628;1251;64247;-74
2023/11/26 08:07:24;;;;;;;11.10;9.90;;;;;;;0.17;100.00;98122.52;109546;1253;59028;-75
2023/11/26 08:09:51;;;;;;;47.00;22.10;;;;;;;0.21;100.00;98122.70;109453;1252;59039;-75
2023/11/26 08:12:20;;;;;;;33.80;22.30;;;;;;;0.22;100.00;98121.62;109586;1252;66047;-75
2023/11/26 08:14:48;;;;;;;16.30;12.20;;;;;;;0.24;100.00;98127.84;109573;1254;61156;-75
2023/11/26 08:17:18;;;;;;;18.70;12.20;;;;;;;0.26;100.00;98129.33;109536;1252;64074;-75
2023/11/26 08:19:45;;;;;;;17.60;12.60;;;;;;;0.31;100.00;98131.06;109587;1253;58942;-74
2023/11/26 08:22:13;;;;;;;17.80;13.10;;;;;;;0.34;100.00;98134.98;109575;1253;58993;-74
2023/11/26 08:24:42;;;;;;;25.80;15.00;;;;;;;0.40;100.00;98131.40;109578;1252;67009;-75
2023/11/26 08:27:13;;;;;;;29.20;17.30;;;;;;;0.42;100.00;98132.19;109594;1253;60075;-76
2023/11/26 08:29:43;;;;;;;28.50;16.60;;;;;;;0.38;100.00;98134.61;109256;1252;64086;-75
2023/11/26 08:32:10;;;;;;;30.90;18.50;;;;;;;0.38;100.00;98135.85;109527;1252;59020;-74
2023/11/26 08:34:39;;;;;;;15.60;10.70;;;;;;;0.43;100.00;98129.52;109561;1253;59080;-75
2023/11/26 08:37:07;;;;;;;15.40;10.10;;;;;;;0.44;100.00;98130.89;109571;1254;65614;-74
2023/11/26 08:39:34;;;;;;;14.60;11.00;;;;;;;0.38;100.00;98130.59;109538;1254;59838;-75
2023/11/26 08:42:04;;;;;;;9.60;7.30;;;;;;;0.34;100.00;98133.75;109257;1253;64782;-74
2023/11/26 08:44:32;;;;;;;11.50;8.60;;;;;;;0.27;100.00;98134.55;109547;1253;58959;-74
2023/11/26 08:47:02;;;;;;;11.30;7.90;;;;;;;0.27;100.00;98141.73;109598;1253;58860;-75
2023/11/26 08:49:30;;;;;;;9.90;8.10;;;;;;;0.29;100.00;98147.05;109213;1254;65494;-75
2023/11/26 08:51:57;;;;;;;9.50;6.70;;;;;;;0.30;100.00;98149.95;109596;1253;58994;-74
2023/11/26 08:54:23;;;;;;;13.10;8.40;;;;;;;0.40;100.00;98153.59;109541;1253;65335;-74
2023/11/26 08:56:50;;;;;;;12.50;8.40;;;;;;;0.62;100.00;98154.64;109446;1256;59066;-74
2023/11/26 08:59:17;;;;;;;10.10;7.50;;;;;;;0.77;100.00;98158.41;109571;1255;58888;-77
2023/11/26 09:01:44;;;;;;;11.80;8.10;;;;;;;0.85;100.00;98158.42;109508;1252;65984;-77
2023/11/26 09:04:11;;;;;;;6.60;5.50;;;;;;;0.84;100.00;98160.20;109327;1254;69413;-77
2023/11/26 09:06:40;;;;;;;10.10;6.30;;;;;;;0.78;100.00;98160.98;109519;1252;64301;-78
2023/11/26 09:09:07;;;;;;;6.10;5.50;;;;;;;0.70;100.00;98163.77;109526;1254;58984;-77
2023/11/26 09:11:34;;;;;;;6.30;5.00;;;;;;;0.61;100.00;98162.02;109563;1254;58897;-77
2023/11/26 09:14:00;;;;;;;8.00;5.90;;;;;;;0.52;100.00;98166.73;109556;1253;67154;-78
2023/11/26 09:16:31;;;;;;;7.80;6.20;;;;;;;0.44;100.00;98168.29;106479;1254;1002999;-77
2023/11/26 09:18:57;;;;;;;;;;;;;;;0.41;100.00;98171.02;109562;1254;65093;-77
2023/11/26 09:21:24;;;;;;;6.50;5.70;;;;;;;0.38;100.00;98170.08;109513;1254;59020;-77
2023/11/26 09:23:51;;;;;;;8.80;6.70;;;;;;;0.34;100.00;98170.62;109532;1252;58926;-78
2023/11/26 09:26:18;;;;;;;7.00;6.10;;;;;;;0.27;100.00;98177.34;109574;1253;66180;-76
2023/11/26 09:28:45;;;;;;;8.30;7.40;;;;;;;0.21;100.00;98180.70;109488;1254;61103;-78
2023/11/26 09:31:11;;;;;;;8.80;6.60;;;;;;;0.17;100.00;98175.10;109501;1254;65078;-77
2023/11/26 09:33:38;;;;;;;9.40;7.10;;;;;;;0.18;100.00;98171.40;109494;1253;58982;-77
2023/11/26 09:36:05;;;;;;;9.20;6.60;;;;;;;0.27;100.00;98170.35;109601;1252;59059;-77
2023/11/26 09:38:32;;;;;;;7.30;5.30;;;;;;;0.30;100.00;98168.66;109319;1257;66208;-77
2023/11/26 09:40:58;;;;;;;8.30;6.40;;;;;;;0.26;100.00;98173.20;109587;1254;60994;-77
2023/11/26 09:43:30;;;;;;;8.60;6.10;;;;;;;0.26;100.00;98171.27;109527;1251;65357;-77
2023/11/26 09:45:57;;;;;;;5.90;4.20;;;;;;;0.32;100.00;98175.59;109529;1255;58995;-78
2023/11/26 09:48:23;;;;;;;6.70;4.20;;;;;;;0.41;100.00;98176.61;109492;1254;59020;-77
2023/11/26 09:50:53;;;;;;;7.50;4.50;;;;;;;0.53;100.00;98179.45;109530;1253;66951;-77
2023/11/26 09:53:20;;;;;;;4.30;3.30;;;;;;;0.65;100.00;98176.90;109555;1251;61101;-77
2023/11/26 09:55:48;;;;;;;4.40;3.30;;;;;;;0.76;100.00;98176.77;109230;1252;64299;-77
2023/11/26 09:58:15;;;;;;;7.50;4.70;;;;;;;0.79;100.00;98181.41;109496;1253;58995;-78
2023/11/26 10:00:42;;;;;;;4.70;4.20;;;;;;;0.82;100.00;98184.06;109576;1254;58935;-77
2023/11/26 10:03:09;;;;;;;5.70;4.20;;;;;;;0.81;100.00;98186.19;109554;1254;65969;-78
2023/11/26 10:05:36;;;;;;;5.90;4.00;;;;;;;0.77;100.00;98187.94;109514;1254;61536;-76
2023/11/26 10:08:03;;;;;;;4.90;4.30;;;;;;;0.73;100.00;98189.70;109519;1254;65003;-76
2023/11/26 10:10:30;;;;;;;6.10;4.60;;;;;;;0.69;100.00;98195.98;109564;1253;58911;-76
2023/11/26 10:12:59;;;;;;;4.90;4.10;;;;;;;0.67;100.00;98198.33;108826;1253;1002265;-77
2023/11/26 10:15:31;;;;;;;6.20;4.40;;;;;;;0.67;100.00;98207.23;109450;1253;65686;-76
2023/11/26 10:18:05;;;;;;;6.50;3.90;;;;;;;0.68;100.00;98207.90;109592;1253;60029;-76
2023/11/26 10:20:50;;;;;;;6.60;5.00;;;;;;;0.66;100.00;98207.96;109551;1254;65352;-76
2023/11/26 10:23:24;;;;;;;9.90;5.60;;;;;;;0.76;100.00;98204.43;109547;1252;59000;-77
2023/11/26 10:25:51;;;;;;;4.70;3.30;;;;;;;0.86;100.00;98203.48;109560;1254;59084;-78
2023/11/26 10:28:18;;;;;;;6.90;4.60;;;;;;;0.95;100.00;98207.52;109354;1253;65960;-76
2023/11/26 10:30:45;;;;;;;6.50;4.10;;;;;;;1.02;100.00;98208.24;109543;1252;68925;-76
2023/11/26 10:33:12;;;;;;;5.90;4.20;;;;;;;0.96;100.00;98209.58;107092;1254;1002550;-76
2023/11/26 10:35:53;;;;;;;9.50;6.70;;;;;;;0.83;100.00;98208.86;109509;1254;59237;-76
2023/11/26 10:38:21;;;;;;;5.20;4.50;;;;;;;0.75;100.00;98218.45;109453;1254;59042;-76
2023/11/26 10:40:49;;;;;;;9.30;6.00;;;;;;;0.72;100.00;98219.96;109525;1252;66999;-76
2023/11/26 10:43:19;;;;;;;11.70;5.90;;;;;;;0.65;100.00;98220.44;109381;1254;61273;-77
2023/11/26 10:45:47;;;;;;;7.00;4.70;;;;;;;0.56;100.00;98222.86;109524;1254;65043;-77
2023/11/26 10:48:15;;;;;;;7.70;5.40;;;;;;;0.51;100.00;98225.50;109259;1254;59025;-76
2023/11/26 10:50:45;;;;;;;7.50;5.60;;;;;;;0.47;100.00;98226.73;109550;1253;59081;-76
2023/11/26 10:53:22;;;;;;;9.40;6.10;;;;;;;0.43;100.00;98225.12;108010;1254;1003042;-77
2023/11/26 10:55:53;;;;;;;24.70;13.20;;;;;;;0.39;100.00;98227.52;109442;1253;60400;-76
2023/11/26 10:58:22;;;;;;;13.70;8.50;;;;;;;0.35;100.00;98229.96;109521;1253;64262;-76
2023/11/26 11:00:52;;;;;;;10.70;5.60;;;;;;;0.30;100.00;98235.56;109489;1254;60278;-77
2023/11/26 11:03:19;;;;;;;13.20;7.20;;;;;;;0.26;100.00;98238.33;109560;1252;59117;-76
2023/11/26 11:05:47;;;;;;;14.20;7.50;;;;;;;0.31;100.00;98239.21;109523;1253;67064;-76
2023/11/26 11:08:16;;;;;;;12.10;7.40;;;;;;;0.37;100.00;98239.13;109264;1254;59999;-77
2023/11/26 11:10:55;;;;;;;8.20;4.50;;;;;;;0.38;100.00;98245.38;109466;1254;65298;-77
2023/11/26 11:13:22;;;;;;;10.70;5.50;;;;;;;0.37;100.00;98244.23;109541;1254;58983;-76
2023/11/26 11:15:50;;;;;;;11.40;6.20;;;;;;;0.39;100.00;98240.98;109534;1251;59292;-78
2023/11/26 11:18:30;;;;;;;18.90;8.60;;;;;;;0.42;100.00;98241.23;109583;1252;66725;-77